METAR Data
IDs: Format: Raw Decoded Include TAF

Data at: 2102 UTC 18 Apr 2021

TJNR 182053Z AUTO 17009KT 10SM CLR 29/22 A3002 RMK AO2 SLP166 T02890217 58013